Time;durP1;ratioP1;P1;durP2;ratioP2;P2;SDS_P1;SDS_P2;PMS_P1;PMS_P2;Temp;Humidity;BMP_temperature;BMP_pressure;BME280_temperature;BME280_humidity;BME280_pressure;Samples;Min_cycle;Max_cycle;Signal;HPM_P1;HPM_P2
2023/07/20 00:01:17;;;;;;;1.38;1.00;;;;;;;;;;4965829;28;20347;-80
2023/07/20 00:03:43;;;;;;;1.95;1.23;;;;;;;;;;4965291;28;20144;-80
2023/07/20 00:06:09;;;;;;;1.80;1.10;;;;;;;;;;4986569;28;20043;-80
2023/07/20 00:08:35;;;;;;;2.47;1.20;;;;;;;;;;4990428;28;20087;-80
2023/07/20 00:11:01;;;;;;;1.83;1.27;;;;;;;;;;4957952;28;20038;-80
2023/07/20 00:13:28;;;;;;;2.28;1.02;;;;;;;;;;4976274;28;20042;-81
2023/07/20 00:15:54;;;;;;;1.80;0.82;;;;;;;;;;4955355;28;20454;-79
2023/07/20 00:18:21;;;;;;;1.92;0.90;;;;;;;;;;4991527;28;20061;-80
2023/07/20 00:20:47;;;;;;;2.65;1.15;;;;;;;;;;4989664;28;20038;-80
2023/07/20 00:23:14;;;;;;;1.05;0.80;;;;;;;;;;4962419;28;20394;-81
2023/07/20 00:25:40;;;;;;;1.25;0.80;;;;;;;;;;4973724;28;20047;-82
2023/07/20 00:28:06;;;;;;;1.45;1.00;;;;;;;;;;4977872;28;20035;-80
2023/07/20 00:30:32;;;;;;;1.98;1.10;;;;;;;;;;4990787;28;20030;-81
2023/07/20 00:32:58;;;;;;;1.17;0.90;;;;;;;;;;4990085;28;20358;-80
2023/07/20 00:35:24;;;;;;;1.70;1.00;;;;;;;;;;4960052;28;20541;-80
2023/07/20 00:37:50;;;;;;;2.28;1.00;;;;;;;;;;4976193;28;20038;-80
2023/07/20 00:40:17;;;;;;;1.65;0.95;;;;;;;;;;4960719;28;20371;-80
2023/07/20 00:42:43;;;;;;;2.10;1.13;;;;;;;;;;4973952;28;20423;-80
2023/07/20 00:45:10;;;;;;;1.65;1.25;;;;;;;;;;4976047;28;20088;-80
2023/07/20 00:47:37;;;;;;;4.78;1.75;;;;;;;;;;4962603;28;20050;-80
2023/07/20 00:50:03;;;;;;;1.90;1.30;;;;;;;;;;4974733;28;20035;-80
2023/07/20 00:52:30;;;;;;;2.35;1.40;;;;;;;;;;4975973;28;20355;-80
2023/07/20 00:54:56;;;;;;;2.53;1.60;;;;;;;;;;4976062;28;20092;-80
2023/07/20 00:57:25;;;;;;;6.60;1.80;;;;;;;;;;4968193;28;20038;-81
2023/07/20 00:59:51;;;;;;;3.70;1.80;;;;;;;;;;4959584;28;20057;-81
2023/07/20 01:02:17;;;;;;;1.75;1.20;;;;;;;;;;4997782;28;20074;-81
2023/07/20 01:04:43;;;;;;;3.10;1.50;;;;;;;;;;4979970;28;20578;-80
2023/07/20 01:07:09;;;;;;;2.22;1.33;;;;;;;;;;4957264;28;20044;-81
2023/07/20 01:09:48;;;;;;;1.95;1.15;;;;;;;;;;4974615;28;20160;-80
2023/07/20 01:12:52;;;;;;;1.60;1.20;;;;;;;;;;4988830;28;20061;-80
2023/07/20 01:15:19;;;;;;;2.92;1.30;;;;;;;;;;4934152;28;20049;-80
2023/07/20 01:17:45;;;;;;;0.75;0.75;;;;;;;;;;4950477;28;20098;-80
2023/07/20 01:20:14;;;;;;;1.42;1.10;;;;;;;;;;4942986;28;20132;-80
2023/07/20 01:22:40;;;;;;;1.65;1.00;;;;;;;;;;4993771;28;20042;-80
2023/07/20 01:25:20;;;;;;;1.75;0.90;;;;;;;;;;4991136;28;20655;-80
2023/07/20 01:27:49;;;;;;;3.42;1.20;;;;;;;;;;4983452;28;20427;-80
2023/07/20 01:30:31;;;;;;;1.52;1.08;;;;;;;;;;4990226;28;20203;-80
2023/07/20 01:32:58;;;;;;;2.63;1.13;;;;;;;;;;4992187;28;20130;-81
2023/07/20 01:35:27;;;;;;;2.78;1.42;;;;;;;;;;4993674;28;20034;-84
2023/07/20 01:37:54;;;;;;;2.08;0.63;;;;;;;;;;4976593;28;20078;-84
2023/07/20 01:40:20;;;;;;;2.78;1.30;;;;;;;;;;4992870;28;20116;-84
2023/07/20 01:42:47;;;;;;;2.33;1.15;;;19.90;92.30;;;;;;4993008;28;20430;-84
2023/07/20 01:45:13;;;;;;;1.27;0.85;;;17.80;92.80;;;;;;4963065;28;20064;-85
2023/07/20 01:47:39;;;;;;;1.95;1.15;;;17.70;92.80;;;;;;4959640;28;20038;-85
2023/07/20 01:50:05;;;;;;;1.33;0.85;;;17.70;92.80;;;;;;4995959;28;20046;-85
2023/07/20 01:52:31;;;;;;;1.98;1.20;;;17.70;92.80;;;;;;4990274;28;20055;-84
2023/07/20 01:54:57;;;;;;;1.33;0.88;;;17.60;92.80;;;;;;4960007;28;20487;-84
2023/07/20 01:57:22;;;;;;;1.73;1.20;;;17.60;92.80;;;;;;4975328;28;20042;-85
2023/07/20 01:59:48;;;;;;;1.38;1.05;;;17.60;92.80;;;;;;4959978;28;20046;-84
2023/07/20 02:02:14;;;;;;;1.98;0.90;;;17.60;92.80;;;;;;5008286;28;20054;-85
2023/07/20 02:04:40;;;;;;;1.83;1.23;;;;;;;;;;4958138;28;20073;-85
2023/07/20 02:07:06;;;;;;;2.67;1.17;;;17.60;92.80;;;;;;4974490;28;20487;-85
2023/07/20 02:09:32;;;;;;;2.25;1.17;;;;;;;;;;4957857;28;20046;-85
2023/07/20 02:11:58;;;;;;;2.83;1.10;;;;;;;;;;4972949;28;20041;-85
2023/07/20 02:14:24;;;;;;;1.55;1.00;;;;;;;;;;4989790;28;20044;-81
2023/07/20 02:16:57;;;;;;;1.10;1.00;;;;;;;;;;4992355;28;20126;-80
2023/07/20 02:19:25;;;;;;;2.30;1.30;;;;;;;;;;4973017;28;20153;-80
2023/07/20 02:21:51;;;;;;;3.78;1.42;;;;;;;;;;4968188;28;20046;-80
2023/07/20 02:24:17;;;;;;;1.75;1.08;;;;;;;;;;4970881;28;20038;-80
2023/07/20 02:26:43;;;;;;;1.63;1.42;;;;;;;;;;4969761;28;20042;-80
2023/07/20 02:29:11;;;;;;;2.28;1.30;;;;;;;;;;4973435;28;20046;-80
2023/07/20 02:31:39;;;;;;;1.65;1.20;;;;;;;;;;4973042;28;20132;-80
2023/07/20 02:34:09;;;;;;;2.15;1.30;;;;;;;;;;4974071;28;20049;-81
2023/07/20 02:36:35;;;;;;;4.00;1.10;;;;;;;;;;4973570;28;20042;-81
2023/07/20 02:39:03;;;;;;;2.25;1.05;;;;;;;;;;4989533;28;20045;-80
2023/07/20 02:41:31;;;;;;;1.35;0.93;;;;;;;;;;4970139;28;20148;-80
2023/07/20 02:43:57;;;;;;;2.55;0.95;;;;;;;;;;4987682;28;20133;-80
2023/07/20 02:46:23;;;;;;;1.52;1.05;;;;;;;;;;4952028;28;20081;-81
2023/07/20 02:48:49;;;;;;;9.10;1.90;;;;;;;;;;4973187;28;20097;-80
2023/07/20 02:51:15;;;;;;;3.03;1.17;;;;;;;;;;4970216;28;20078;-80
2023/07/20 02:53:41;;;;;;;2.47;1.65;;;;;;;;;;4989375;28;20034;-85
2023/07/20 02:56:07;;;;;;;2.28;1.35;;;;;;;;;;4975079;28;20042;-84
2023/07/20 02:58:36;;;;;;;1.42;1.08;;;;;;;;;;4993814;28;20046;-84
2023/07/20 03:01:03;;;;;;;1.60;1.27;;;;;;;;;;4978340;28;20046;-85
2023/07/20 03:03:29;;;;;;;1.95;1.30;;;;;;;;;;4997249;28;20050;-84
2023/07/20 03:05:57;;;;;;;1.40;1.20;;;;;;;;;;4974418;28;20042;-84
2023/07/20 03:08:24;;;;;;;2.45;1.30;;;;;;;;;;4959037;28;20613;-85
2023/07/20 03:10:50;;;;;;;0.95;0.90;;;;;;;;;;4990697;28;20074;-84
2023/07/20 03:13:16;;;;;;;1.38;1.15;;;;;;;;;;4990968;28;20070;-85
2023/07/20 03:15:42;;;;;;;2.95;1.38;;;;;;;;;;4974428;28;20038;-84
2023/07/20 03:18:08;;;;;;;2.63;1.15;;;;;;;;;;4990876;28;20398;-84
2023/07/20 03:20:36;;;;;;;1.70;1.20;;;;;;;;;;4976380;28;20136;-84
2023/07/20 03:23:02;;;;;;;1.77;1.25;;;;;;;;;;4958671;28;20757;-84
2023/07/20 03:25:28;;;;;;;2.58;1.27;;;;;;;;;;4970851;28;20050;-86
2023/07/20 03:27:55;;;;;;;2.80;1.35;;;;;;;;;;4991066;28;20418;-85
2023/07/20 03:30:21;;;;;;;1.85;1.25;;;;;;;;;;4973199;28;20050;-84
2023/07/20 03:32:47;;;;;;;1.70;0.98;;;;;;;;;;4974889;28;20504;-84
2023/07/20 03:35:15;;;;;;;2.08;1.25;;;;;;;;;;4989938;28;20057;-85
2023/07/20 03:37:42;;;;;;;1.95;1.17;;;;;;;;;;4996018;28;20455;-85
2023/07/20 03:40:08;;;;;;;1.77;1.10;;;;;;;;;;4979004;28;20080;-85
2023/07/20 03:42:34;;;;;;;4.05;1.30;;;;;;;;;;4996039;28;20618;-84
2023/07/20 03:45:00;;;;;;;3.13;1.30;;;;;;;;;;4979538;28;20066;-85
2023/07/20 03:47:26;;;;;;;3.30;1.20;;;;;;;;;;4996876;28;20057;-85
2023/07/20 03:49:53;;;;;;;2.60;1.02;;;;;;;;;;4997611;28;20042;-84
2023/07/20 03:52:19;;;;;;;1.85;1.10;;;;;;;;;;4977585;28;20042;-85
2023/07/20 03:54:45;;;;;;;1.67;1.42;;;;;;;;;;4978067;28;20497;-85
2023/07/20 03:57:11;;;;;;;3.28;1.17;;;;;;;;;;4980936;28;20077;-85
2023/07/20 03:59:38;;;;;;;1.88;1.40;;;;;;;;;;4964983;28;20042;-85
2023/07/20 04:02:05;;;;;;;7.70;1.85;;;;;;;;;;4999677;28;20081;-85
2023/07/20 04:04:31;;;;;;;2.47;1.85;;;;;;;;;;4981080;28;20042;-85
2023/07/20 04:06:57;;;;;;;2.90;1.38;;;;;;;;;;4997059;28;20046;-85
2023/07/20 04:09:23;;;;;;;1.65;1.40;;;;;;;;;;4997296;28;20121;-85
2023/07/20 04:11:50;;;;;;;6.35;1.23;;;;;;;;;;4970553;28;20035;-85
2023/07/20 04:14:16;;;;;;;2.40;1.88;;;;;;;;;;4996880;28;20121;-85
2023/07/20 04:16:42;;;;;;;4.07;1.55;;;;;;;;;;4980550;28;20042;-85
2023/07/20 04:19:08;;;;;;;1.42;0.90;;;;;;;;;;4961481;28;20045;-85
2023/07/20 04:21:40;;;;;;;4.80;1.30;;;;;;;;;;4965332;28;20706;-85
2023/07/20 04:24:06;;;;;;;2.27;1.30;;;;;;;;;;4979857;28;20061;-85
2023/07/20 04:26:32;;;;;;;3.58;1.40;;;;;;;;;;4987781;28;20038;-85
2023/07/20 04:28:59;;;;;;;2.30;1.52;;;;;;;;;;4996654;28;20509;-85
2023/07/20 04:31:25;;;;;;;7.78;1.65;;;;;;;;;;4966172;28;20097;-85
2023/07/20 04:33:51;;;;;;;1.83;1.33;;;;;;;;;;4976287;28;20045;-85
2023/07/20 04:36:19;;;;;;;2.38;1.25;;;;;;;;;;4995185;28;20042;-85
2023/07/20 04:38:48;;;;;;;7.43;1.20;;;;;;;;;;4979661;28;20050;-85
2023/07/20 04:41:15;;;;;;;2.10;1.20;;;;;;;;;;4969398;28;20042;-84
2023/07/20 04:43:44;;;;;;;3.17;1.60;;;;;;;;;;4982240;28;20058;-85
2023/07/20 04:46:11;;;;;;;2.55;1.40;;;;;;;;;;4980332;28;20050;-85
2023/07/20 04:48:37;;;;;;;2.33;1.50;;;;;;;;;;4979325;28;20524;-85
2023/07/20 04:51:03;;;;;;;2.58;1.30;;;;;;;;;;4977313;28;20073;-86
2023/07/20 04:53:30;;;;;;;3.45;1.70;;;;;;;;;;4976902;28;20497;-84
2023/07/20 04:55:57;;;;;;;3.47;1.80;;;;;;;;;;4995989;28;20042;-85
2023/07/20 04:58:23;;;;;;;4.32;1.60;;;;;;;;;;4980387;28;20049;-85
2023/07/20 05:00:50;;;;;;;6.63;1.42;;;;;;;;;;4982463;28;20442;-84
2023/07/20 05:03:16;;;;;;;3.13;1.50;;;;;;;;;;4992485;28;20145;-85
2023/07/20 05:05:42;;;;;;;4.30;1.63;;;;;;;;;;4972737;28;20518;-85
2023/07/20 05:08:08;;;;;;;2.63;1.55;;;;;;;;;;4973523;28;20128;-80
2023/07/20 05:10:34;;;;;;;2.35;1.63;;;;;;;;;;4957613;28;20070;-80
2023/07/20 05:13:00;;;;;;;3.08;1.67;;;;;;;;;;4975368;28;20093;-81
2023/07/20 05:15:27;;;;;;;2.28;1.33;;;;;;;;;;4969880;28;20386;-80
2023/07/20 05:17:53;;;;;;;2.35;1.50;;;;;;;;;;4973320;28;20038;-80
2023/07/20 05:20:20;;;;;;;2.92;1.40;;;;;;;;;;4956123;28;20050;-80
2023/07/20 05:22:46;;;;;;;1.60;1.10;;;;;;;;;;4973043;28;20042;-80
2023/07/20 05:25:12;;;;;;;1.63;1.30;;;;;;;;;;4957389;28;20078;-80
2023/07/20 05:27:39;;;;;;;2.10;1.50;;;;;;;;;;4990391;28;20050;-80
2023/07/20 05:30:05;;;;;;;7.40;1.63;;;;;;;;;;4974136;28;20130;-81
2023/07/20 05:32:32;;;;;;;1.63;1.20;;;;;;;;;;4973489;28;20103;-80
2023/07/20 05:34:58;;;;;;;3.78;2.10;;;;;;;;;;4966994;28;20041;-81
2023/07/20 05:37:24;;;;;;;2.15;1.10;;;;;;;;;;4963774;28;20089;-81
2023/07/20 05:39:51;;;;;;;4.68;1.05;;;;;;;;;;4934509;28;20107;-81
2023/07/20 05:42:17;;;;;;;6.70;1.42;;;;;;;;;;4976800;28;20069;-80
2023/07/20 05:44:43;;;;;;;1.85;1.20;;;;;;;;;;4969187;28;20086;-82
2023/07/20 05:47:09;;;;;;;1.75;1.33;;;;;;;;;;4957914;28;20038;-82
2023/07/20 05:49:36;;;;;;;1.65;1.42;;;;;;;;;;4957317;28;20443;-82
2023/07/20 05:52:02;;;;;;;4.72;1.65;;;;;;;;;;4960600;28;20034;-82
2023/07/20 05:54:28;;;;;;;3.35;1.50;;;;;;;;;;4973918;28;20034;-86
2023/07/20 05:56:54;;;;;;;2.40;1.92;;;;;;;;;;4966622;28;20092;-80
2023/07/20 05:59:21;;;;;;;3.65;2.00;;;;;;;;;;4954891;28;20091;-80
2023/07/20 06:01:48;;;;;;;3.78;2.03;;;;;;;;;;4968052;28;20039;-83
2023/07/20 06:04:14;;;;;;;4.82;2.30;;;;;;;;;;4976343;28;20045;-82
2023/07/20 06:06:40;;;;;;;2.75;1.98;;;;;;;;;;4989140;28;20058;-80
2023/07/20 06:09:11;;;;;;;2.78;1.58;;;;;;;;;;4988352;28;20072;-80
2023/07/20 06:11:37;;;;;;;3.97;1.80;;;;;;;;;;4967834;28;20042;-80
2023/07/20 06:14:03;;;;;;;2.60;1.70;;;;;;;;;;4968868;28;20045;-83
2023/07/20 06:16:30;;;;;;;1.52;1.33;;;;;;;;;;4967961;28;20081;-83
2023/07/20 06:18:56;;;;;;;2.88;1.30;;;;;;;;;;4973373;28;20042;-83
2023/07/20 06:21:22;;;;;;;1.88;1.45;;;;;;;;;;4988547;28;20046;-88
2023/07/20 06:23:49;;;;;;;2.58;1.67;;;;;;;;;;4956841;28;20046;-89
2023/07/20 06:26:15;;;;;;;2.40;1.25;;;;;;;;;;4965583;28;20043;-89
2023/07/20 06:28:41;;;;;;;2.78;1.35;;;;;;;;;;4978072;28;20089;-86
2023/07/20 06:31:08;;;;;;;4.43;1.83;;;;;;;;;;4955854;28;20126;-85
2023/07/20 06:33:36;;;;;;;2.70;1.00;;;;;;;;;;4973842;28;20097;-85
2023/07/20 06:36:03;;;;;;;2.35;1.50;;;;;;;;;;4974344;28;20113;-85
2023/07/20 06:38:29;;;;;;;2.95;1.45;;;;;;;;;;4960602;28;20133;-85
2023/07/20 06:40:55;;;;;;;1.60;1.10;;;;;;;;;;4974158;28;20121;-86
2023/07/20 06:43:21;;;;;;;2.95;1.23;;;;;;;;;;4974789;28;20050;-86
2023/07/20 06:45:54;;;;;;;1.83;1.38;;;;;;;;;;4958237;28;20105;-86
2023/07/20 06:48:20;;;;;;;;;;;;;;;;;;4974801;28;20466;-85
2023/07/20 06:50:46;;;;;;;3.20;1.42;;;;;;;;;;4973280;28;19929;-85
2023/07/20 06:53:12;;;;;;;2.72;1.55;;;;;;;;;;4985118;28;20399;-84
2023/07/20 06:55:39;;;;;;;4.43;2.25;;;;;;;;;;4942797;28;20038;-87
2023/07/20 06:58:05;;;;;;;5.75;1.80;;;;;;;;;;4989581;28;20038;-80
2023/07/20 07:00:31;;;;;;;3.83;1.70;;;;;;;;;;4958294;28;20034;-80
2023/07/20 07:02:57;;;;;;;4.65;1.63;;;;;;;;;;4977508;28;20045;-81
2023/07/20 07:05:23;;;;;;;6.28;1.90;;;;;;;;;;4973512;28;20562;-80
2023/07/20 07:07:50;;;;;;;3.45;1.63;;;;;;;;;;4970154;28;20104;-80
2023/07/20 07:10:16;;;;;;;2.97;1.52;;;;;;;;;;4955936;28;20491;-81
2023/07/20 07:12:42;;;;;;;2.60;1.40;;;;;;;;;;4986887;28;20042;-81
2023/07/20 07:15:10;;;;;;;3.17;1.85;;;;;;;;;;4972784;28;20428;-80
2023/07/20 07:17:36;;;;;;;5.07;1.67;;;;;;;;;;4988409;28;20520;-81
2023/07/20 07:20:03;;;;;;;4.53;2.35;;;;;;;;;;4972127;28;20089;-80
2023/07/20 07:22:30;;;;;;;2.83;1.83;;;;;;;;;;4986698;28;20516;-80
2023/07/20 07:24:56;;;;;;;3.85;1.85;;;;;;;;;;4960501;28;20042;-80
2023/07/20 07:27:23;;;;;;;6.60;2.42;;;;;;;;;;4989266;28;20418;-80
2023/07/20 07:29:49;;;;;;;8.75;2.10;;;;;;;;;;4953220;28;20563;-81
2023/07/20 07:32:15;;;;;;;3.45;2.33;;;;;;;;;;4969372;28;20046;-81
2023/07/20 07:34:42;;;;;;;4.10;2.60;;;;;;;;;;4972112;28;20057;-81
2023/07/20 07:37:08;;;;;;;3.08;2.08;;;;;;;;;;4987377;28;20117;-80
2023/07/20 07:39:34;;;;;;;3.58;2.20;;;;;;;;;;4972802;28;20038;-80
2023/07/20 07:42:00;;;;;;;3.72;2.35;;;;;;;;;;4972057;28;20100;-81
2023/07/20 07:44:26;;;;;;;5.72;2.17;;;;;;;;;;4970355;28;20142;-81
2023/07/20 07:46:53;;;;;;;3.92;1.85;;;;;;;;;;4988586;28;20042;-81
2023/07/20 07:49:19;;;;;;;5.53;1.75;;;;;;;;;;4972407;28;20050;-81
2023/07/20 07:51:46;;;;;;;5.18;2.53;;;;;;;;;;4987372;28;20053;-81
2023/07/20 07:54:12;;;;;;;4.70;2.80;;;;;;;;;;4971636;28;20038;-81
2023/07/20 07:56:38;;;;;;;5.10;2.42;;;;;;;;;;4988764;28;20386;-81
2023/07/20 07:59:04;;;;;;;3.67;2.10;;;;;;;;;;4953024;28;20038;-81
2023/07/20 08:01:30;;;;;;;5.10;2.47;;;;;;;;;;4983517;28;20129;-81
2023/07/20 08:03:57;;;;;;;6.03;2.72;;;;;;;;;;4975593;28;20046;-80
2023/07/20 08:06:24;;;;;;;4.35;2.00;;;;;;;;;;4971605;28;20046;-80
2023/07/20 08:08:50;;;;;;;3.65;1.73;;;;;;;;;;4996407;28;20104;-81
2023/07/20 08:11:18;;;;;;;2.85;1.65;;;;;;;;;;4971083;28;20042;-80
2023/07/20 08:13:43;;;;;;;5.55;2.13;;;17.50;92.80;;;;;;4972300;28;20057;-86
2023/07/20 08:16:09;;;;;;;3.00;1.80;;;19.30;92.10;;;;;;4989712;28;20364;-86
2023/07/20 08:18:35;;;;;;;5.03;2.40;;;19.30;92.00;;;;;;4973515;28;20042;-86
2023/07/20 08:21:01;;;;;;;4.10;1.77;;;;;;;;;;4956994;28;20475;-86
2023/07/20 08:23:27;;;;;;;3.60;1.95;;;;;;;;;;4975262;28;20050;-80
2023/07/20 08:25:54;;;;;;;6.78;2.60;;;;;;;;;;4974506;28;20136;-81
2023/07/20 08:28:20;;;;;;;3.38;2.15;;;;;;;;;;4961873;28;20038;-80
2023/07/20 08:30:47;;;;;;;8.35;2.67;;;;;;;;;;4974931;28;20614;-81
2023/07/20 08:33:14;;;;;;;5.53;2.20;;;19.30;91.90;;;;;;4975768;28;20049;-80
2023/07/20 08:35:41;;;;;;;3.97;2.70;;;;;;;;;;4990961;28;20046;-80
2023/07/20 08:38:07;;;;;;;4.38;2.28;;;;;;;;;;4994035;28;20509;-81
2023/07/20 08:40:34;;;;;;;3.85;1.70;;;;;;;;;;4977396;28;20038;-81
2023/07/20 08:43:00;;;;;;;4.53;1.98;;;;;;;;;;4977066;28;20050;-81
2023/07/20 08:45:29;;;;;;;3.42;1.80;;;;;;;;;;4991117;28;20100;-80
2023/07/20 08:47:56;;;;;;;3.15;1.48;;;;;;;;;;4976079;28;20096;-80
2023/07/20 08:50:23;;;;;;;3.20;1.50;;;;;;;;;;4973811;28;20046;-81
2023/07/20 08:52:52;;;;;;;3.70;1.45;;;;;;;;;;4962256;28;20031;-81
2023/07/20 08:55:20;;;;;;;4.55;1.50;;;;;;;;;;4988516;28;20134;-80
2023/07/20 08:57:46;;;;;;;1.70;1.10;;;;;;;;;;4990839;28;20403;-81
2023/07/20 09:00:14;;;;;;;2.33;1.20;;;;;;;;;;4992096;28;20053;-81
2023/07/20 09:02:41;;;;;;;2.35;1.33;;;;;;;;;;4995088;28;20037;-81
2023/07/20 09:05:09;;;;;;;1.92;1.02;;;;;;;;;;4974488;28;20323;-81
2023/07/20 09:07:36;;;;;;;2.80;1.23;;;;;;;;;;4990348;28;20053;-81
2023/07/20 09:10:06;;;;;;;2.55;1.60;;;;;;;;;;4973838;28;20058;-80
2023/07/20 09:12:32;;;;;;;2.42;1.35;;;;;;;;;;4954846;28;20050;-80
2023/07/20 09:14:59;;;;;;;3.10;1.70;;;;;;;;;;4957519;28;20034;-80
2023/07/20 09:17:26;;;;;;;1.95;1.17;;;;;;;;;;4990385;28;20104;-80
2023/07/20 09:19:53;;;;;;;2.78;1.65;;;;;;;;;;4991580;28;20042;-81
2023/07/20 09:22:18;;;;;;;4.90;1.60;;;19.50;91.90;;;;;;4968492;28;20375;-81
2023/07/20 09:24:45;;;;;;;3.13;1.40;;;;;;;;;;4989165;28;20042;-80
2023/07/20 09:27:11;;;;;;;3.83;1.73;;;;;;;;;;4954389;28;20042;-81
2023/07/20 09:29:50;;;;;;;5.43;1.90;;;;;;;;;;4988754;28;20070;-81
2023/07/20 09:32:22;;;;;;;5.75;1.52;;;;;;;;;;4973520;28;20069;-80
2023/07/20 09:34:48;;;;;;;4.43;1.75;;;;;;;;;;4970495;28;20446;-80
2023/07/20 09:37:14;;;;;;;3.88;1.55;;;;;;;;;;4984189;28;20043;-80
2023/07/20 09:39:44;;;;;;;4.30;1.90;;;;;;;;;;4970868;28;20049;-86
2023/07/20 09:42:12;;;;;;;4.47;1.90;;;;;;;;;;4959381;28;20053;-86
2023/07/20 09:44:39;;;;;;;2.88;1.40;;;;;;;;;;4986863;28;20062;-86
2023/07/20 09:47:05;;;;;;;4.18;1.70;;;;;;;;;;4975526;28;20122;-86
2023/07/20 09:49:31;;;;;;;2.53;1.38;;;;;;;;;;4997754;28;20458;-86
2023/07/20 09:52:02;;;;;;;3.45;1.73;;;;;;;;;;4959907;28;20034;-86
2023/07/20 09:54:29;;;;;;;3.45;1.42;;;;;;;;;;4980094;28;20188;-86
2023/07/20 09:56:56;;;;;;;2.92;1.48;;;;;;;;;;4972601;28;20066;-86
2023/07/20 09:59:22;;;;;;;3.60;1.75;;;;;;;;;;4976014;28;20083;-86
2023/07/20 10:01:49;;;;;;;5.35;1.75;;;;;;;;;;5005486;28;20129;-85
2023/07/20 10:04:17;;;;;;;2.88;1.35;;;;;;;;;;4991975;28;20046;-86
2023/07/20 10:06:43;;;;;;;2.80;1.48;;;;;;;;;;4959381;28;20192;-86
2023/07/20 10:09:12;;;;;;;4.13;1.75;;;20.40;90.50;;;;;;4991779;28;20038;-86
2023/07/20 10:11:43;;;;;;;2.75;1.40;;;21.70;87.40;;;;;;4991910;28;20042;-86
2023/07/20 10:14:12;;;;;;;2.17;1.63;;;21.80;87.20;;;;;;4991951;28;20034;-86
2023/07/20 10:16:40;;;;;;;2.47;1.67;;;;;;;;;;4976798;28;20168;-86
2023/07/20 10:19:08;;;;;;;3.33;1.35;;;;;;;;;;4981513;28;20048;-86
2023/07/20 10:21:40;;;;;;;2.58;1.63;;;21.90;87.10;;;;;;4976269;28;20588;-86
2023/07/20 10:24:07;;;;;;;3.47;1.17;;;22.20;86.50;;;;;;5008008;28;20098;-86
2023/07/20 10:26:33;;;;;;;10.48;2.35;;;;;;;;;;4951574;28;20057;-86
2023/07/20 10:29:00;;;;;;;4.03;1.65;;;;;;;;;;4989128;28;20125;-86
2023/07/20 10:31:28;;;;;;;3.15;1.50;;;;;;;;;;4971198;28;20517;-85
2023/07/20 10:33:55;;;;;;;4.43;1.45;;;;;;;;;;4991192;28;20038;-86
2023/07/20 10:36:28;;;;;;;3.15;1.45;;;;;;;;;;4975600;28;20100;-85
2023/07/20 10:38:55;;;;;;;2.83;1.33;;;;;;;;;;4980397;28;20134;-85
2023/07/20 10:41:26;;;;;;;2.83;1.75;;;;;;;;;;4991477;28;20038;-86
2023/07/20 10:43:58;;;;;;;4.03;1.80;;;;;;;;;;4971419;28;20069;-86
2023/07/20 10:46:39;;;;;;;3.20;1.80;;;;;;;;;;4991269;28;20459;-86
2023/07/20 10:49:06;;;;;;;2.70;1.30;;;;;;;;;;4968954;28;20082;-86
2023/07/20 10:51:43;;;;;;;3.03;1.38;;;;;;;;;;4990594;28;20510;-86
2023/07/20 10:54:18;;;;;;;2.53;1.48;;;;;;;;;;4987865;28;20057;-86
2023/07/20 10:56:47;;;;;;;2.33;1.45;;;;;;;;;;4991035;28;20073;-86
2023/07/20 10:59:26;;;;;;;3.03;1.17;;;;;;;;;;4987760;28;20052;-86
2023/07/20 11:01:59;;;;;;;6.63;1.40;;;;;;;;;;4990820;28;20069;-86
2023/07/20 11:04:42;;;;;;;6.85;1.58;;;;;;;;;;4978570;28;20498;-86
2023/07/20 11:07:08;;;;;;;6.18;2.22;;;;;;;;;;4989715;28;20138;-86
2023/07/20 11:09:35;;;;;;;3.67;2.22;;;;;;;;;;4990772;28;20042;-86
2023/07/20 11:12:14;;;;;;;4.45;2.17;;;;;;;;;;4958669;28;20364;-86
2023/07/20 11:14:44;;;;;;;2.58;1.80;;;;;;;;;;4992386;28;20490;-86
2023/07/20 11:17:14;;;;;;;3.03;1.90;;;;;;;;;;4987450;28;20038;-86
2023/07/20 11:19:41;;;;;;;5.30;1.92;;;;;;;;;;4990548;28;20141;-86
2023/07/20 11:22:10;;;;;;;3.60;1.70;;;;;;;;;;4995794;28;20092;-86
2023/07/20 11:24:40;;;;;;;3.65;1.73;;;;;;;;;;4974053;28;20042;-86
2023/07/20 11:27:06;;;;;;;4.13;1.88;;;;;;;;;;4972628;28;20061;-84
2023/07/20 11:29:32;;;;;;;5.30;1.65;;;;;;;;;;4991130;28;20125;-87
2023/07/20 11:31:59;;;;;;;3.85;1.60;;;;;;;;;;4994902;28;20125;-84
2023/07/20 11:34:25;;;;;;;3.00;1.60;;;;;;;;;;4994767;28;20087;-84
2023/07/20 11:36:52;;;;;;;2.88;1.70;;;;;;;;;;4974084;28;20533;-86
2023/07/20 11:39:19;;;;;;;5.30;1.90;;;;;;;;;;4970417;28;20053;-84
2023/07/20 11:41:56;;;;;;;5.47;1.75;;;;;;;;;;4989908;28;20053;-83
2023/07/20 11:44:29;;;;;;;2.60;1.73;;;;;;;;;;4972165;28;20090;-85
2023/07/20 11:47:03;;;;;;;7.05;1.92;;;;;;;;;;4970421;28;20381;-85
2023/07/20 11:49:29;;;;;;;3.72;1.85;;;;;;;;;;4987702;28;20130;-84
2023/07/20 11:51:57;;;;;;;3.78;1.52;;;;;;;;;;4976804;28;20038;-84
2023/07/20 11:54:23;;;;;;;4.03;2.13;;;;;;;;;;4999324;28;20073;-83
2023/07/20 11:56:53;;;;;;;2.63;2.05;;;;;;;;;;4991140;28;20042;-86
2023/07/20 11:59:19;;;;;;;2.33;1.48;;;;;;;;;;4996880;28;20046;-86
2023/07/20 12:01:46;;;;;;;3.00;1.60;;;;;;;;;;4977440;28;20092;-86
2023/07/20 12:04:12;;;;;;;5.55;1.77;;;;;;;;;;4975024;28;20042;-86
2023/07/20 12:06:38;;;;;;;3.65;2.10;;;;;;;;;;4977806;28;20042;-86
2023/07/20 12:09:04;;;;;;;3.83;1.80;;;;;;;;;;4984581;28;20049;-87
2023/07/20 12:11:32;;;;;;;3.13;1.40;;;;;;;;;;4993808;28;20054;-86
2023/07/20 12:13:59;;;;;;;4.38;1.75;;;;;;;;;;4993676;28;20038;-86
2023/07/20 12:16:27;;;;;;;5.10;2.05;;;;;;;;;;4999208;28;20190;-86
2023/07/20 12:19:03;;;;;;;3.22;1.48;;;;;;;;;;4972938;28;20042;-86
2023/07/20 12:21:30;;;;;;;3.53;1.85;;;;;;;;;;4972987;28;20065;-86
2023/07/20 12:24:00;;;;;;;2.85;1.83;;;;;;;;;;4977106;28;20125;-86
2023/07/20 12:26:26;;;;;;;4.53;2.17;;;;;;;;;;4984616;28;20495;-86
2023/07/20 12:28:53;;;;;;;2.95;1.85;;;;;;;;;;4994538;28;20501;-86
2023/07/20 12:31:21;;;;;;;3.90;2.17;;;;;;;;;;4960962;28;20080;-86
2023/07/20 12:33:47;;;;;;;3.08;2.30;;;;;;;;;;4979500;28;20419;-86
2023/07/20 12:36:13;;;;;;;6.40;1.55;;;;;;;;;;4976896;28;20042;-86
2023/07/20 12:38:41;;;;;;;2.72;1.58;;;;;;;;;;4960943;28;20042;-86
2023/07/20 12:41:07;;;;;;;2.90;1.73;;;;;;;;;;4978060;28;20451;-86
2023/07/20 12:43:34;;;;;;;2.97;1.90;;;;;;;;;;4996219;28;20049;-86
2023/07/20 12:46:00;;;;;;;4.43;2.03;;;;;;;;;;4993859;28;20455;-86
2023/07/20 12:48:26;;;;;;;4.22;1.80;;;;;;;;;;4977713;28;20125;-88
2023/07/20 12:50:52;;;;;;;2.67;1.35;;;;;;;;;;4989162;28;20125;-87
2023/07/20 12:53:18;;;;;;;2.13;1.42;;;;;;;;;;4990934;28;20654;-87
2023/07/20 12:55:45;;;;;;;4.32;1.50;;;;;;;;;;4979744;28;20037;-87
2023/07/20 12:58:13;;;;;;;4.07;1.23;;;;;;;;;;4979113;28;20038;-86
2023/07/20 13:00:39;;;;;;;2.85;1.60;;;;;;;;;;4978533;28;20046;-79
2023/07/20 13:03:06;;;;;;;2.88;1.55;;;;;;;;;;4970757;28;20618;-79
2023/07/20 13:05:33;;;;;;;2.85;1.33;;;;;;;;;;4985418;28;20088;-79
2023/07/20 13:08:03;;;;;;;3.85;1.70;;;;;;;;;;4969626;28;20141;-78
2023/07/20 13:10:31;;;;;;;1.83;1.50;;;;;;;;;;4983479;28;20050;-79
2023/07/20 13:12:57;;;;;;;4.45;1.40;;;;;;;;;;4987654;28;20039;-78
2023/07/20 13:15:25;;;;;;;2.78;1.23;;;;;;;;;;4988541;28;20050;-78
2023/07/20 13:17:51;;;;;;;2.05;1.23;;;;;;;;;;4989637;28;20117;-79
2023/07/20 13:20:18;;;;;;;2.97;1.85;;;;;;;;;;4990428;28;20726;-79
2023/07/20 13:22:44;;;;;;;2.08;1.27;;;;;;;;;;4987363;28;20042;-78
2023/07/20 13:25:10;;;;;;;5.18;1.38;;;;;;;;;;4986582;28;20034;-78
2023/07/20 13:27:37;;;;;;;2.58;1.20;;;;;;;;;;4986948;28;20036;-78
2023/07/20 13:30:06;;;;;;;1.80;1.38;;;;;;;;;;4986187;28;20120;-78
2023/07/20 13:32:33;;;;;;;2.05;1.27;;;;;;;;;;4987492;28;20038;-78
2023/07/20 13:34:59;;;;;;;2.67;1.02;;;;;;;;;;4989093;28;20551;-77
2023/07/20 13:37:26;;;;;;;2.17;1.05;;;;;;;;;;4987367;28;20427;-78
2023/07/20 13:39:53;;;;;;;1.52;1.15;;;;;;;;;;4984759;28;20960;-77
2023/07/20 13:42:20;;;;;;;2.88;1.42;;;;;;;;;;4988686;28;20528;-78
2023/07/20 13:44:51;;;;;;;3.80;1.20;;;;;;;;;;4984186;28;20054;-77
2023/07/20 13:47:17;;;;;;;1.90;1.05;;;;;;;;;;4988748;28;20065;-78
2023/07/20 13:49:43;;;;;;;2.10;1.30;;;;;;;;;;4991604;28;20050;-78
2023/07/20 13:52:10;;;;;;;4.32;1.40;;;;;;;;;;4988368;28;20038;-78
2023/07/20 13:54:36;;;;;;;4.50;1.65;;;;;;;;;;4989841;28;20363;-78
2023/07/20 13:57:02;;;;;;;2.17;1.30;;;;;;;;;;4990619;28;20119;-79
2023/07/20 13:59:28;;;;;;;1.73;1.05;;;;;;;;;;4987415;28;20236;-79
2023/07/20 14:01:54;;;;;;;1.67;1.10;;;;;;;;;;4988657;28;20042;-79
2023/07/20 14:04:20;;;;;;;3.30;1.50;;;;;;;;;;4990162;28;20046;-79
2023/07/20 14:06:47;;;;;;;1.98;1.20;;;;;;;;;;4989569;28;20036;-79
2023/07/20 14:09:13;;;;;;;1.63;1.20;;;;;;;;;;4976695;28;20046;-78
2023/07/20 14:11:39;;;;;;;2.85;1.40;;;;;;;;;;4988333;28;20046;-79
2023/07/20 14:14:05;;;;;;;2.58;1.17;;;;;;;;;;4986201;28;20109;-79
2023/07/20 14:16:32;;;;;;;2.47;1.10;;;22.20;86.40;;;;;;4986640;28;20088;-78
2023/07/20 14:18:58;;;;;;;2.63;1.27;;;;;;;;;;4983820;28;20042;-78
2023/07/20 14:21:24;;;;;;;2.35;1.05;;;;;;;;;;4988059;28;20044;-78
2023/07/20 14:23:55;;;;;;;2.28;1.15;;;;;;;;;;4987392;28;20125;-78
2023/07/20 14:26:21;;;;;;;2.97;2.10;;;;;;;;;;4969335;28;20046;-79
2023/07/20 14:28:47;;;;;;;3.35;1.75;;;;;;;;;;4989596;28;20367;-79
2023/07/20 14:31:14;;;;;;;3.00;1.77;;;;;;;;;;4988138;28;20105;-79
2023/07/20 14:33:40;;;;;;;3.15;1.60;;;;;;;;;;4988148;28;20500;-78
2023/07/20 14:36:06;;;;;;;2.78;1.35;;;;;;;;;;4986852;28;20042;-78